sensor_id;sensor_type;location;lat;lon;timestamp;temperature;humidity
25937;DHT22;13733;51.178;4.450;2022-12-18T00:00:32;-2.70;99.90
25937;DHT22;13733;51.178;4.450;2022-12-18T00:02:58;-2.70;99.90
25937;DHT22;13733;51.178;4.450;2022-12-18T00:05:23;-2.80;99.90
25937;DHT22;13733;51.178;4.450;2022-12-18T00:07:49;-2.80;99.90
25937;DHT22;13733;51.178;4.450;2022-12-18T00:10:15;-2.90;99.90
25937;DHT22;13733;51.178;4.450;2022-12-18T00:12:40;-2.90;99.90
25937;DHT22;13733;51.178;4.450;2022-12-18T00:15:06;-3.00;99.90
25937;DHT22;13733;51.178;4.450;2022-12-18T00:17:32;-3.10;99.90
25937;DHT22;13733;51.178;4.450;2022-12-18T00:19:58;-3.00;99.90
25937;DHT22;13733;51.178;4.450;2022-12-18T00:22:24;-3.00;99.90
25937;DHT22;13733;51.178;4.450;2022-12-18T00:24:49;-3.00;99.90
25937;DHT22;13733;51.178;4.450;2022-12-18T00:27:15;-3.00;99.90
25937;DHT22;13733;51.178;4.450;2022-12-18T00:29:40;-3.00;99.90
25937;DHT22;13733;51.178;4.450;2022-12-18T00:32:06;-3.10;99.90
25937;DHT22;13733;51.178;4.450;2022-12-18T00:34:32;-3.10;99.90
25937;DHT22;13733;51.178;4.450;2022-12-18T00:36:58;-3.20;99.90
25937;DHT22;13733;51.178;4.450;2022-12-18T00:39:23;-3.30;99.90
25937;DHT22;13733;51.178;4.450;2022-12-18T00:41:49;-3.30;99.90
25937;DHT22;13733;51.178;4.450;2022-12-18T00:44:33;-3.30;99.90
25937;DHT22;13733;51.178;4.450;2022-12-18T00:46:58;-3.30;99.90
25937;DHT22;13733;51.178;4.450;2022-12-18T00:49:24;-3.30;99.90
25937;DHT22;13733;51.178;4.450;2022-12-18T00:51:50;-3.30;99.90
25937;DHT22;13733;51.178;4.450;2022-12-18T00:54:16;-3.20;99.90
25937;DHT22;13733;51.178;4.450;2022-12-18T00:56:42;-3.30;99.90
25937;DHT22;13733;51.178;4.450;2022-12-18T00:59:07;-3.30;99.90
25937;DHT22;13733;51.178;4.450;2022-12-18T01:01:33;-3.40;99.90
25937;DHT22;13733;51.178;4.450;2022-12-18T01:04:00;-3.30;99.90
25937;DHT22;13733;51.178;4.450;2022-12-18T01:06:26;-3.40;99.90
25937;DHT22;13733;51.178;4.450;2022-12-18T01:08:52;-3.40;99.90
25937;DHT22;13733;51.178;4.450;2022-12-18T01:11:19;-3.40;99.90
25937;DHT22;13733;51.178;4.450;2022-12-18T01:13:45;-3.40;99.90
25937;DHT22;13733;51.178;4.450;2022-12-18T01:16:12;-3.40;99.90
25937;DHT22;13733;51.178;4.450;2022-12-18T01:18:38;-3.40;99.90
25937;DHT22;13733;51.178;4.450;2022-12-18T01:21:09;-3.40;99.90
25937;DHT22;13733;51.178;4.450;2022-12-18T01:23:36;-3.40;99.90
25937;DHT22;13733;51.178;4.450;2022-12-18T01:26:08;-3.40;99.90
25937;DHT22;13733;51.178;4.450;2022-12-18T01:28:35;-3.50;99.90
25937;DHT22;13733;51.178;4.450;2022-12-18T01:31:29;-3.50;99.90
25937;DHT22;13733;51.178;4.450;2022-12-18T01:33:56;-3.50;99.90
25937;DHT22;13733;51.178;4.450;2022-12-18T01:36:27;-3.60;99.90
25937;DHT22;13733;51.178;4.450;2022-12-18T01:38:54;-3.60;99.90
25937;DHT22;13733;51.178;4.450;2022-12-18T01:41:23;-3.60;99.90
25937;DHT22;13733;51.178;4.450;2022-12-18T01:43:57;-3.60;99.90
25937;DHT22;13733;51.178;4.450;2022-12-18T01:46:24;-3.70;99.90
25937;DHT22;13733;51.178;4.450;2022-12-18T01:48:57;-3.70;99.90
25937;DHT22;13733;51.178;4.450;2022-12-18T01:51:26;-3.70;99.90
25937;DHT22;13733;51.178;4.450;2022-12-18T01:53:52;-3.70;99.90
25937;DHT22;13733;51.178;4.450;2022-12-18T01:56:19;-3.70;99.90
25937;DHT22;13733;51.178;4.450;2022-12-18T02:01:24;-3.80;99.90
25937;DHT22;13733;51.178;4.450;2022-12-18T02:03:50;-3.80;99.90
25937;DHT22;13733;51.178;4.450;2022-12-18T02:06:33;-3.80;99.90
25937;DHT22;13733;51.178;4.450;2022-12-18T02:09:20;-3.90;99.90
25937;DHT22;13733;51.178;4.450;2022-12-18T02:11:56;-3.90;99.90
25937;DHT22;13733;51.178;4.450;2022-12-18T02:14:38;-3.90;99.90
25937;DHT22;13733;51.178;4.450;2022-12-18T02:22:29;-3.90;99.90
25937;DHT22;13733;51.178;4.450;2022-12-18T02:28:02;-3.90;99.90
25937;DHT22;13733;51.178;4.450;2022-12-18T02:30:31;-3.90;99.90
25937;DHT22;13733;51.178;4.450;2022-12-18T02:33:01;-3.90;99.90
25937;DHT22;13733;51.178;4.450;2022-12-18T02:35:30;-4.00;99.90
25937;DHT22;13733;51.178;4.450;2022-12-18T02:37:58;-3.90;99.90
25937;DHT22;13733;51.178;4.450;2022-12-18T02:40:26;-4.00;99.90
25937;DHT22;13733;51.178;4.450;2022-12-18T02:42:53;-4.00;99.90
25937;DHT22;13733;51.178;4.450;2022-12-18T02:45:20;-4.00;99.90
25937;DHT22;13733;51.178;4.450;2022-12-18T02:47:48;-4.00;99.90
25937;DHT22;13733;51.178;4.450;2022-12-18T02:56:05;-3.90;99.90
25937;DHT22;13733;51.178;4.450;2022-12-18T03:01:37;-3.90;99.90
25937;DHT22;13733;51.178;4.450;2022-12-18T03:04:16;-3.90;99.90
25937;DHT22;13733;51.178;4.450;2022-12-18T03:06:48;-3.90;99.90
25937;DHT22;13733;51.178;4.450;2022-12-18T03:09:25;-4.00;99.90
25937;DHT22;13733;51.178;4.450;2022-12-18T03:11:56;-4.00;99.90
25937;DHT22;13733;51.178;4.450;2022-12-18T03:14:43;-4.00;99.90
25937;DHT22;13733;51.178;4.450;2022-12-18T03:17:15;-4.00;99.90
25937;DHT22;13733;51.178;4.450;2022-12-18T03:19:43;-4.00;99.90
25937;DHT22;13733;51.178;4.450;2022-12-18T03:22:11;-4.00;99.90
25937;DHT22;13733;51.178;4.450;2022-12-18T03:24:46;-4.00;99.90
25937;DHT22;13733;51.178;4.450;2022-12-18T03:27:15;-4.00;99.90
25937;DHT22;13733;51.178;4.450;2022-12-18T03:29:51;-4.10;99.90
25937;DHT22;13733;51.178;4.450;2022-12-18T03:32:31;-4.10;99.90
25937;DHT22;13733;51.178;4.450;2022-12-18T03:35:02;-4.00;99.90
25937;DHT22;13733;51.178;4.450;2022-12-18T03:37:37;-4.00;99.90
25937;DHT22;13733;51.178;4.450;2022-12-18T03:40:04;-4.10;99.90
25937;DHT22;13733;51.178;4.450;2022-12-18T03:42:56;-4.10;99.90
25937;DHT22;13733;51.178;4.450;2022-12-18T03:45:34;-4.10;99.90
25937;DHT22;13733;51.178;4.450;2022-12-18T03:48:27;-4.10;99.90
25937;DHT22;13733;51.178;4.450;2022-12-18T03:51:02;-4.10;99.90
25937;DHT22;13733;51.178;4.450;2022-12-18T03:53:59;-4.00;99.90
25937;DHT22;13733;51.178;4.450;2022-12-18T03:56:33;-4.10;99.90
25937;DHT22;13733;51.178;4.450;2022-12-18T03:59:00;-4.10;99.90
25937;DHT22;13733;51.178;4.450;2022-12-18T04:01:35;-4.10;99.90
25937;DHT22;13733;51.178;4.450;2022-12-18T04:04:03;-4.20;99.90
25937;DHT22;13733;51.178;4.450;2022-12-18T04:06:35;-4.20;99.90
25937;DHT22;13733;51.178;4.450;2022-12-18T04:09:04;-4.30;99.90
25937;DHT22;13733;51.178;4.450;2022-12-18T04:11:32;-4.30;99.90
25937;DHT22;13733;51.178;4.450;2022-12-18T04:13:58;-4.30;99.90
25937;DHT22;13733;51.178;4.450;2022-12-18T04:16:25;-4.30;99.90
25937;DHT22;13733;51.178;4.450;2022-12-18T04:18:54;-4.30;99.90
25937;DHT22;13733;51.178;4.450;2022-12-18T04:21:22;-4.30;99.90
25937;DHT22;13733;51.178;4.450;2022-12-18T04:23:49;-4.30;99.90
25937;DHT22;13733;51.178;4.450;2022-12-18T04:26:17;-4.40;99.90
25937;DHT22;13733;51.178;4.450;2022-12-18T04:29:07;-4.40;99.90
25937;DHT22;13733;51.178;4.450;2022-12-18T04:31:36;-4.30;99.90
25937;DHT22;13733;51.178;4.450;2022-12-18T04:34:02;-4.40;99.90
25937;DHT22;13733;51.178;4.450;2022-12-18T04:36:34;-4.40;99.90
25937;DHT22;13733;51.178;4.450;2022-12-18T04:39:00;-4.40;99.90
25937;DHT22;13733;51.178;4.450;2022-12-18T04:41:26;-4.30;99.90
25937;DHT22;13733;51.178;4.450;2022-12-18T04:43:53;-4.30;99.90
25937;DHT22;13733;51.178;4.450;2022-12-18T04:46:18;-4.30;99.90
25937;DHT22;13733;51.178;4.450;2022-12-18T04:48:45;-4.40;99.90
25937;DHT22;13733;51.178;4.450;2022-12-18T04:51:12;-4.30;99.90
25937;DHT22;13733;51.178;4.450;2022-12-18T04:53:38;-4.30;99.90
25937;DHT22;13733;51.178;4.450;2022-12-18T04:56:08;-4.30;99.90
25937;DHT22;13733;51.178;4.450;2022-12-18T04:58:35;-4.30;99.90
25937;DHT22;13733;51.178;4.450;2022-12-18T05:01:01;-4.30;99.90
25937;DHT22;13733;51.178;4.450;2022-12-18T05:03:27;-4.30;99.90
25937;DHT22;13733;51.178;4.450;2022-12-18T05:05:53;-4.30;99.90
25937;DHT22;13733;51.178;4.450;2022-12-18T05:08:18;-4.30;99.90
25937;DHT22;13733;51.178;4.450;2022-12-18T05:10:44;-4.30;99.90
25937;DHT22;13733;51.178;4.450;2022-12-18T05:13:10;-4.30;99.90
25937;DHT22;13733;51.178;4.450;2022-12-18T05:15:36;-4.30;99.90
25937;DHT22;13733;51.178;4.450;2022-12-18T05:18:02;-4.40;99.90
25937;DHT22;13733;51.178;4.450;2022-12-18T05:20:28;-4.30;99.90
25937;DHT22;13733;51.178;4.450;2022-12-18T05:22:54;-4.40;99.90
25937;DHT22;13733;51.178;4.450;2022-12-18T05:25:20;-4.30;99.90
25937;DHT22;13733;51.178;4.450;2022-12-18T05:27:46;-4.30;99.90
25937;DHT22;13733;51.178;4.450;2022-12-18T05:30:12;-4.30;99.90
25937;DHT22;13733;51.178;4.450;2022-12-18T05:32:38;-4.30;99.90
25937;DHT22;13733;51.178;4.450;2022-12-18T05:35:05;-4.30;99.90
25937;DHT22;13733;51.178;4.450;2022-12-18T05:37:31;-4.30;99.90
25937;DHT22;13733;51.178;4.450;2022-12-18T05:39:57;-4.40;99.90
25937;DHT22;13733;51.178;4.450;2022-12-18T05:42:22;-4.40;99.90
25937;DHT22;13733;51.178;4.450;2022-12-18T05:44:48;-4.40;99.90
25937;DHT22;13733;51.178;4.450;2022-12-18T05:47:14;-4.40;99.90
25937;DHT22;13733;51.178;4.450;2022-12-18T05:49:40;-4.50;99.90
25937;DHT22;13733;51.178;4.450;2022-12-18T05:52:05;-4.50;99.90
25937;DHT22;13733;51.178;4.450;2022-12-18T05:54:31;-4.50;99.90
25937;DHT22;13733;51.178;4.450;2022-12-18T05:56:57;-4.50;99.90
25937;DHT22;13733;51.178;4.450;2022-12-18T05:59:23;-4.50;99.90
25937;DHT22;13733;51.178;4.450;2022-12-18T06:01:49;-4.60;99.90
25937;DHT22;13733;51.178;4.450;2022-12-18T06:04:15;-4.60;99.90
25937;DHT22;13733;51.178;4.450;2022-12-18T06:06:40;-4.50;99.90
25937;DHT22;13733;51.178;4.450;2022-12-18T06:09:06;-4.50;99.90
25937;DHT22;13733;51.178;4.450;2022-12-18T06:11:38;-4.40;99.90
25937;DHT22;13733;51.178;4.450;2022-12-18T06:14:05;-4.50;99.90
25937;DHT22;13733;51.178;4.450;2022-12-18T06:16:31;-4.60;99.90
25937;DHT22;13733;51.178;4.450;2022-12-18T06:19:02;-4.60;99.90
25937;DHT22;13733;51.178;4.450;2022-12-18T06:21:29;-4.50;99.90
25937;DHT22;13733;51.178;4.450;2022-12-18T06:23:55;-4.50;99.90
25937;DHT22;13733;51.178;4.450;2022-12-18T06:26:21;-4.50;99.90
25937;DHT22;13733;51.178;4.450;2022-12-18T06:28:46;-4.50;99.90
25937;DHT22;13733;51.178;4.450;2022-12-18T06:31:13;-4.50;99.90
25937;DHT22;13733;51.178;4.450;2022-12-18T06:33:39;-4.50;99.90
25937;DHT22;13733;51.178;4.450;2022-12-18T06:36:08;-4.40;99.90
25937;DHT22;13733;51.178;4.450;2022-12-18T06:38:35;-4.40;99.90
25937;DHT22;13733;51.178;4.450;2022-12-18T06:41:08;-4.40;99.90
25937;DHT22;13733;51.178;4.450;2022-12-18T06:43:34;-4.40;99.90
25937;DHT22;13733;51.178;4.450;2022-12-18T06:46:01;-4.40;99.90
25937;DHT22;13733;51.178;4.450;2022-12-18T06:48:27;-4.50;99.90
25937;DHT22;13733;51.178;4.450;2022-12-18T06:50:52;-4.40;99.90
25937;DHT22;13733;51.178;4.450;2022-12-18T06:53:18;-4.40;99.90
25937;DHT22;13733;51.178;4.450;2022-12-18T06:55:44;-4.50;99.90
25937;DHT22;13733;51.178;4.450;2022-12-18T06:58:10;-4.50;99.90
25937;DHT22;13733;51.178;4.450;2022-12-18T07:00:35;-4.50;99.90
25937;DHT22;13733;51.178;4.450;2022-12-18T07:03:01;-4.40;99.90
25937;DHT22;13733;51.178;4.450;2022-12-18T07:05:27;-4.30;99.90
25937;DHT22;13733;51.178;4.450;2022-12-18T07:07:53;-4.40;99.90
25937;DHT22;13733;51.178;4.450;2022-12-18T07:10:18;-4.40;99.90
25937;DHT22;13733;51.178;4.450;2022-12-18T07:12:44;-4.40;99.90
25937;DHT22;13733;51.178;4.450;2022-12-18T07:15:10;-4.40;99.90
25937;DHT22;13733;51.178;4.450;2022-12-18T07:17:37;-4.50;99.90
25937;DHT22;13733;51.178;4.450;2022-12-18T07:20:04;-4.50;99.90
25937;DHT22;13733;51.178;4.450;2022-12-18T07:22:30;-4.40;99.90
25937;DHT22;13733;51.178;4.450;2022-12-18T07:24:56;-4.40;99.90
25937;DHT22;13733;51.178;4.450;2022-12-18T07:27:22;-4.40;99.90
25937;DHT22;13733;51.178;4.450;2022-12-18T07:29:48;-4.40;99.90
25937;DHT22;13733;51.178;4.450;2022-12-18T07:32:14;-4.40;99.90
25937;DHT22;13733;51.178;4.450;2022-12-18T07:34:39;-4.40;99.90
25937;DHT22;13733;51.178;4.450;2022-12-18T07:37:05;-4.40;99.90
25937;DHT22;13733;51.178;4.450;2022-12-18T07:39:31;-4.30;99.90
25937;DHT22;13733;51.178;4.450;2022-12-18T07:41:57;-4.30;99.90
25937;DHT22;13733;51.178;4.450;2022-12-18T07:44:42;-4.40;99.90
25937;DHT22;13733;51.178;4.450;2022-12-18T07:47:08;-4.30;99.90
25937;DHT22;13733;51.178;4.450;2022-12-18T07:49:33;-4.40;99.90
25937;DHT22;13733;51.178;4.450;2022-12-18T07:51:59;-4.40;99.90
25937;DHT22;13733;51.178;4.450;2022-12-18T07:54:25;-4.40;99.90
25937;DHT22;13733;51.178;4.450;2022-12-18T07:56:51;-4.30;99.90
25937;DHT22;13733;51.178;4.450;2022-12-18T07:59:18;-4.40;99.90
25937;DHT22;13733;51.178;4.450;2022-12-18T08:01:44;-4.40;99.90
25937;DHT22;13733;51.178;4.450;2022-12-18T08:04:09;-4.30;99.90
25937;DHT22;13733;51.178;4.450;2022-12-18T08:06:35;-4.30;99.90
25937;DHT22;13733;51.178;4.450;2022-12-18T08:09:02;-4.30;99.90
25937;DHT22;13733;51.178;4.450;2022-12-18T08:11:29;-4.20;99.90
25937;DHT22;13733;51.178;4.450;2022-12-18T08:13:56;-4.20;99.90
25937;DHT22;13733;51.178;4.450;2022-12-18T08:16:23;-4.20;99.90
25937;DHT22;13733;51.178;4.450;2022-12-18T08:18:52;-4.00;99.90
25937;DHT22;13733;51.178;4.450;2022-12-18T08:21:24;-4.00;99.90
25937;DHT22;13733;51.178;4.450;2022-12-18T08:23:51;-3.90;99.90
25937;DHT22;13733;51.178;4.450;2022-12-18T08:26:17;-3.90;99.90
25937;DHT22;13733;51.178;4.450;2022-12-18T08:28:43;-3.90;99.90
25937;DHT22;13733;51.178;4.450;2022-12-18T08:31:09;-3.70;99.90
25937;DHT22;13733;51.178;4.450;2022-12-18T08:33:36;-3.60;99.90
25937;DHT22;13733;51.178;4.450;2022-12-18T08:36:04;-3.60;99.90
25937;DHT22;13733;51.178;4.450;2022-12-18T08:38:33;-3.50;99.90
25937;DHT22;13733;51.178;4.450;2022-12-18T08:40:59;-3.50;99.90
25937;DHT22;13733;51.178;4.450;2022-12-18T08:43:26;-3.40;99.90
25937;DHT22;13733;51.178;4.450;2022-12-18T08:46:10;-3.30;99.90
25937;DHT22;13733;51.178;4.450;2022-12-18T08:48:36;-3.20;99.90
25937;DHT22;13733;51.178;4.450;2022-12-18T08:51:03;-3.10;99.90
25937;DHT22;13733;51.178;4.450;2022-12-18T08:53:29;-3.10;99.90
25937;DHT22;13733;51.178;4.450;2022-12-18T08:55:56;-3.00;99.90
25937;DHT22;13733;51.178;4.450;2022-12-18T08:58:22;-3.00;99.90
25937;DHT22;13733;51.178;4.450;2022-12-18T09:00:47;-2.80;99.90
25937;DHT22;13733;51.178;4.450;2022-12-18T09:03:15;-2.70;99.90
25937;DHT22;13733;51.178;4.450;2022-12-18T09:05:41;-2.60;99.90
25937;DHT22;13733;51.178;4.450;2022-12-18T09:08:07;-2.50;99.90
25937;DHT22;13733;51.178;4.450;2022-12-18T09:10:33;-2.40;99.90
25937;DHT22;13733;51.178;4.450;2022-12-18T09:12:59;-2.30;99.90
25937;DHT22;13733;51.178;4.450;2022-12-18T09:15:25;-2.20;99.90
25937;DHT22;13733;51.178;4.450;2022-12-18T09:17:51;-2.10;99.90
25937;DHT22;13733;51.178;4.450;2022-12-18T09:20:18;-2.10;99.90
25937;DHT22;13733;51.178;4.450;2022-12-18T09:22:44;-2.00;99.90
25937;DHT22;13733;51.178;4.450;2022-12-18T09:25:10;-2.00;99.90
25937;DHT22;13733;51.178;4.450;2022-12-18T09:27:36;-1.90;99.90
25937;DHT22;13733;51.178;4.450;2022-12-18T09:30:03;-1.90;99.90
25937;DHT22;13733;51.178;4.450;2022-12-18T09:32:29;-1.80;99.90
25937;DHT22;13733;51.178;4.450;2022-12-18T09:34:55;-1.70;99.90
25937;DHT22;13733;51.178;4.450;2022-12-18T09:37:21;-1.60;99.90
25937;DHT22;13733;51.178;4.450;2022-12-18T09:39:47;-1.60;99.90
25937;DHT22;13733;51.178;4.450;2022-12-18T09:42:20;-1.50;99.90
25937;DHT22;13733;51.178;4.450;2022-12-18T09:44:50;-1.40;99.90
25937;DHT22;13733;51.178;4.450;2022-12-18T09:49:52;-1.20;99.90
25937;DHT22;13733;51.178;4.450;2022-12-18T09:52:21;-1.20;99.90
25937;DHT22;13733;51.178;4.450;2022-12-18T09:55:05;-1.20;99.90
25937;DHT22;13733;51.178;4.450;2022-12-18T09:57:39;-1.00;99.90
25937;DHT22;13733;51.178;4.450;2022-12-18T10:00:21;-0.90;99.90
25937;DHT22;13733;51.178;4.450;2022-12-18T10:02:49;-0.80;99.90
25937;DHT22;13733;51.178;4.450;2022-12-18T10:05:20;-0.90;99.90
25937;DHT22;13733;51.178;4.450;2022-12-18T10:10:49;-0.70;99.90
25937;DHT22;13733;51.178;4.450;2022-12-18T10:24:38;-0.40;99.90
25937;DHT22;13733;51.178;4.450;2022-12-18T10:27:26;-0.40;99.90
25937;DHT22;13733;51.178;4.450;2022-12-18T10:29:53;-0.50;99.90
25937;DHT22;13733;51.178;4.450;2022-12-18T10:32:28;-0.50;99.90
25937;DHT22;13733;51.178;4.450;2022-12-18T10:34:56;-0.60;99.90
25937;DHT22;13733;51.178;4.450;2022-12-18T10:37:25;-0.60;99.90
25937;DHT22;13733;51.178;4.450;2022-12-18T10:40:13;-0.50;99.90
25937;DHT22;13733;51.178;4.450;2022-12-18T10:42:39;-0.40;99.90
25937;DHT22;13733;51.178;4.450;2022-12-18T10:45:10;-0.30;99.90
25937;DHT22;13733;51.178;4.450;2022-12-18T10:47:40;-0.20;99.90
25937;DHT22;13733;51.178;4.450;2022-12-18T10:50:22;-0.20;99.90
25937;DHT22;13733;51.178;4.450;2022-12-18T10:53:01;-0.10;99.90
25937;DHT22;13733;51.178;4.450;2022-12-18T10:55:38;-0.10;99.90
25937;DHT22;13733;51.178;4.450;2022-12-18T10:58:27;0.00;99.90
25937;DHT22;13733;51.178;4.450;2022-12-18T11:06:22;0.30;99.90
25937;DHT22;13733;51.178;4.450;2022-12-18T11:09:27;0.30;99.90
25937;DHT22;13733;51.178;4.450;2022-12-18T11:11:59;0.40;99.90
25937;DHT22;13733;51.178;4.450;2022-12-18T11:14:47;0.40;99.90
25937;DHT22;13733;51.178;4.450;2022-12-18T11:17:30;0.40;99.90
25937;DHT22;13733;51.178;4.450;2022-12-18T11:20:01;0.50;99.90
25937;DHT22;13733;51.178;4.450;2022-12-18T11:22:32;0.50;99.90
25937;DHT22;13733;51.178;4.450;2022-12-18T11:27:24;0.60;99.90
25937;DHT22;13733;51.178;4.450;2022-12-18T11:29:51;0.60;99.90
25937;DHT22;13733;51.178;4.450;2022-12-18T11:38:13;0.80;99.90
25937;DHT22;13733;51.178;4.450;2022-12-18T11:40:44;0.80;99.90
25937;DHT22;13733;51.178;4.450;2022-12-18T11:43:25;1.00;99.90
25937;DHT22;13733;51.178;4.450;2022-12-18T11:46:05;0.90;99.90
25937;DHT22;13733;51.178;4.450;2022-12-18T11:48:47;0.90;99.90
25937;DHT22;13733;51.178;4.450;2022-12-18T11:51:21;1.00;99.90
25937;DHT22;13733;51.178;4.450;2022-12-18T11:53:51;0.90;99.90
25937;DHT22;13733;51.178;4.450;2022-12-18T11:56:30;0.80;99.90
25937;DHT22;13733;51.178;4.450;2022-12-18T12:01:53;0.80;99.90
25937;DHT22;13733;51.178;4.450;2022-12-18T12:17:42;1.20;99.90
25937;DHT22;13733;51.178;4.450;2022-12-18T12:29:26;1.40;99.90
25937;DHT22;13733;51.178;4.450;2022-12-18T12:32:19;1.50;99.90
25937;DHT22;13733;51.178;4.450;2022-12-18T12:35:08;1.60;99.90
25937;DHT22;13733;51.178;4.450;2022-12-18T12:40:31;1.60;99.90
25937;DHT22;13733;51.178;4.450;2022-12-18T12:43:03;1.70;99.90
25937;DHT22;13733;51.178;4.450;2022-12-18T12:48:56;1.60;99.90
25937;DHT22;13733;51.178;4.450;2022-12-18T12:51:35;1.70;99.90
25937;DHT22;13733;51.178;4.450;2022-12-18T12:54:17;1.70;99.90
25937;DHT22;13733;51.178;4.450;2022-12-18T12:57:06;1.80;99.90
25937;DHT22;13733;51.178;4.450;2022-12-18T12:59:39;1.80;99.90
25937;DHT22;13733;51.178;4.450;2022-12-18T13:04:49;1.70;99.90
25937;DHT22;13733;51.178;4.450;2022-12-18T13:07:27;1.70;99.90
25937;DHT22;13733;51.178;4.450;2022-12-18T13:18:26;1.70;99.90
25937;DHT22;13733;51.178;4.450;2022-12-18T13:25:59;1.90;99.90
25937;DHT22;13733;51.178;4.450;2022-12-18T13:34:19;1.80;99.90
25937;DHT22;13733;51.178;4.450;2022-12-18T13:36:45;1.90;99.90
25937;DHT22;13733;51.178;4.450;2022-12-18T13:41:43;1.90;99.90
25937;DHT22;13733;51.178;4.450;2022-12-18T13:44:29;1.90;99.90
25937;DHT22;13733;51.178;4.450;2022-12-18T13:46:57;1.90;99.90
25937;DHT22;13733;51.178;4.450;2022-12-18T13:49:28;1.90;99.90
25937;DHT22;13733;51.178;4.450;2022-12-18T13:51:56;2.00;99.90
25937;DHT22;13733;51.178;4.450;2022-12-18T13:54:35;2.00;99.90
25937;DHT22;13733;51.178;4.450;2022-12-18T13:57:02;2.10;99.90
25937;DHT22;13733;51.178;4.450;2022-12-18T13:59:36;1.90;99.90
25937;DHT22;13733;51.178;4.450;2022-12-18T14:02:24;1.90;99.90
25937;DHT22;13733;51.178;4.450;2022-12-18T14:04:52;2.00;99.90
25937;DHT22;13733;51.178;4.450;2022-12-18T14:07:26;2.00;99.90
25937;DHT22;13733;51.178;4.450;2022-12-18T14:09:57;1.90;99.90
25937;DHT22;13733;51.178;4.450;2022-12-18T14:12:27;1.80;99.90
25937;DHT22;13733;51.178;4.450;2022-12-18T14:18:18;1.80;99.90
25937;DHT22;13733;51.178;4.450;2022-12-18T14:20:44;1.80;99.90
25937;DHT22;13733;51.178;4.450;2022-12-18T14:23:33;1.70;99.90
25937;DHT22;13733;51.178;4.450;2022-12-18T14:26:01;1.80;99.90
25937;DHT22;13733;51.178;4.450;2022-12-18T14:28:28;1.80;99.90
25937;DHT22;13733;51.178;4.450;2022-12-18T14:30:55;1.80;99.90
25937;DHT22;13733;51.178;4.450;2022-12-18T14:33:24;1.80;99.90
25937;DHT22;13733;51.178;4.450;2022-12-18T14:36:03;1.80;99.90
25937;DHT22;13733;51.178;4.450;2022-12-18T14:38:33;1.90;99.90
25937;DHT22;13733;51.178;4.450;2022-12-18T14:41:18;1.80;99.90
25937;DHT22;13733;51.178;4.450;2022-12-18T14:43:47;1.80;99.90
25937;DHT22;13733;51.178;4.450;2022-12-18T14:46:29;1.80;99.90
25937;DHT22;13733;51.178;4.450;2022-12-18T14:48:56;1.80;99.90
25937;DHT22;13733;51.178;4.450;2022-12-18T14:51:27;1.70;99.90
25937;DHT22;13733;51.178;4.450;2022-12-18T14:54:01;1.70;99.90
25937;DHT22;13733;51.178;4.450;2022-12-18T14:56:32;1.80;99.90
25937;DHT22;13733;51.178;4.450;2022-12-18T14:58:58;1.80;99.90
25937;DHT22;13733;51.178;4.450;2022-12-18T15:01:39;1.80;99.90
25937;DHT22;13733;51.178;4.450;2022-12-18T15:04:33;1.80;99.90
25937;DHT22;13733;51.178;4.450;2022-12-18T15:07:12;1.80;99.90
25937;DHT22;13733;51.178;4.450;2022-12-18T15:09:41;1.80;99.90
25937;DHT22;13733;51.178;4.450;2022-12-18T15:12:41;1.80;99.90
25937;DHT22;13733;51.178;4.450;2022-12-18T15:18:13;1.60;99.90
25937;DHT22;13733;51.178;4.450;2022-12-18T15:20:52;1.60;99.90
25937;DHT22;13733;51.178;4.450;2022-12-18T15:25:55;1.60;99.90
25937;DHT22;13733;51.178;4.450;2022-12-18T15:31:00;1.60;99.90
25937;DHT22;13733;51.178;4.450;2022-12-18T15:33:31;1.60;99.90
25937;DHT22;13733;51.178;4.450;2022-12-18T15:36:00;1.70;99.90
25937;DHT22;13733;51.178;4.450;2022-12-18T15:38:27;1.60;99.90
25937;DHT22;13733;51.178;4.450;2022-12-18T15:40:54;1.70;99.90
25937;DHT22;13733;51.178;4.450;2022-12-18T15:43:22;1.70;99.90
25937;DHT22;13733;51.178;4.450;2022-12-18T15:46:18;1.70;99.90
25937;DHT22;13733;51.178;4.450;2022-12-18T15:48:46;1.70;99.90
25937;DHT22;13733;51.178;4.450;2022-12-18T15:51:23;1.70;99.90
25937;DHT22;13733;51.178;4.450;2022-12-18T15:53:54;1.70;99.90
25937;DHT22;13733;51.178;4.450;2022-12-18T15:56:21;1.70;99.90
25937;DHT22;13733;51.178;4.450;2022-12-18T15:59:16;1.80;99.90
25937;DHT22;13733;51.178;4.450;2022-12-18T16:01:45;1.80;99.90
25937;DHT22;13733;51.178;4.450;2022-12-18T16:04:12;1.80;99.90
25937;DHT22;13733;51.178;4.450;2022-12-18T16:06:39;1.80;99.90
25937;DHT22;13733;51.178;4.450;2022-12-18T16:09:06;1.80;99.90
25937;DHT22;13733;51.178;4.450;2022-12-18T16:11:33;1.80;99.90
25937;DHT22;13733;51.178;4.450;2022-12-18T16:14:17;1.80;99.90
25937;DHT22;13733;51.178;4.450;2022-12-18T16:16:45;1.80;99.90
25937;DHT22;13733;51.178;4.450;2022-12-18T16:19:11;1.90;99.90
25937;DHT22;13733;51.178;4.450;2022-12-18T16:21:37;1.80;99.90
25937;DHT22;13733;51.178;4.450;2022-12-18T16:24:03;1.90;99.90
25937;DHT22;13733;51.178;4.450;2022-12-18T16:26:29;1.80;99.90
25937;DHT22;13733;51.178;4.450;2022-12-18T16:28:55;1.70;99.90
25937;DHT22;13733;51.178;4.450;2022-12-18T16:31:20;1.70;99.90
25937;DHT22;13733;51.178;4.450;2022-12-18T16:33:46;1.70;99.90
25937;DHT22;13733;51.178;4.450;2022-12-18T16:36:12;1.70;99.90
25937;DHT22;13733;51.178;4.450;2022-12-18T16:38:38;1.70;99.90
25937;DHT22;13733;51.178;4.450;2022-12-18T16:41:17;1.80;99.90
25937;DHT22;13733;51.178;4.450;2022-12-18T16:43:59;1.90;99.90
25937;DHT22;13733;51.178;4.450;2022-12-18T16:46:25;2.00;99.90
25937;DHT22;13733;51.178;4.450;2022-12-18T16:48:51;1.90;99.90
25937;DHT22;13733;51.178;4.450;2022-12-18T16:51:17;1.80;99.90
25937;DHT22;13733;51.178;4.450;2022-12-18T16:53:42;1.80;99.90
25937;DHT22;13733;51.178;4.450;2022-12-18T16:56:08;1.80;99.90
25937;DHT22;13733;51.178;4.450;2022-12-18T16:58:34;1.80;99.90
25937;DHT22;13733;51.178;4.450;2022-12-18T17:01:06;1.90;99.90
25937;DHT22;13733;51.178;4.450;2022-12-18T17:03:32;2.00;99.90
25937;DHT22;13733;51.178;4.450;2022-12-18T17:06:02;2.00;99.90
25937;DHT22;13733;51.178;4.450;2022-12-18T17:08:28;2.00;99.90
25937;DHT22;13733;51.178;4.450;2022-12-18T17:10:54;2.10;99.90
25937;DHT22;13733;51.178;4.450;2022-12-18T17:13:25;2.20;99.90
25937;DHT22;13733;51.178;4.450;2022-12-18T17:15:51;2.20;99.90
25937;DHT22;13733;51.178;4.450;2022-12-18T17:18:16;2.20;99.90
25937;DHT22;13733;51.178;4.450;2022-12-18T17:20:42;2.30;99.90
25937;DHT22;13733;51.178;4.450;2022-12-18T17:23:08;2.20;99.90
25937;DHT22;13733;51.178;4.450;2022-12-18T17:25:34;2.30;99.90
25937;DHT22;13733;51.178;4.450;2022-12-18T17:27:59;2.30;99.90
25937;DHT22;13733;51.178;4.450;2022-12-18T17:30:26;2.40;99.90
25937;DHT22;13733;51.178;4.450;2022-12-18T17:32:52;2.30;99.90
25937;DHT22;13733;51.178;4.450;2022-12-18T17:35:17;2.30;99.90
25937;DHT22;13733;51.178;4.450;2022-12-18T17:37:43;2.30;99.90
25937;DHT22;13733;51.178;4.450;2022-12-18T17:40:09;2.40;99.90
25937;DHT22;13733;51.178;4.450;2022-12-18T17:42:35;2.40;99.90
25937;DHT22;13733;51.178;4.450;2022-12-18T17:45:00;2.40;99.90
25937;DHT22;13733;51.178;4.450;2022-12-18T17:47:26;2.40;99.90
25937;DHT22;13733;51.178;4.450;2022-12-18T17:49:52;2.30;99.90